createdAt,value
2019-05-29T00:04:52.275Z,0.93
2019-05-29T00:09:48.219Z,1.00
2019-05-29T00:14:44.154Z,1.30
2019-05-29T00:19:40.099Z,1.30
2019-05-29T00:24:36.031Z,1.30
2019-05-29T00:29:31.956Z,1.30
2019-05-29T00:34:27.891Z,1.60
2019-05-29T00:39:24.482Z,1.70
2019-05-29T00:44:33.506Z,1.63
2019-05-29T00:49:18.332Z,1.50
2019-05-29T00:54:14.502Z,1.40
2019-05-29T00:59:11.057Z,1.83
2019-05-29T01:04:07.146Z,1.80
2019-05-29T01:09:08.575Z,1.90
2019-05-29T01:14:04.680Z,1.50
2019-05-29T01:19:20.276Z,1.50
2019-05-29T01:24:16.390Z,1.43
2019-05-29T01:29:12.975Z,1.30
2019-05-29T01:34:08.960Z,1.50
2019-05-29T01:39:06.432Z,1.50
2019-05-29T01:44:03.033Z,1.63
2019-05-29T01:48:58.959Z,1.90
2019-05-29T01:53:54.983Z,1.80
2019-05-29T01:58:51.026Z,2.03
2019-05-29T02:03:46.963Z,2.30
2019-05-29T02:14:00.354Z,1.70
2019-05-29T02:18:56.278Z,1.83
2019-05-29T02:23:52.262Z,1.70
2019-05-29T02:28:48.187Z,1.77
2019-05-29T02:33:44.106Z,1.70
2019-05-29T02:38:52.211Z,2.00
2019-05-29T02:43:48.235Z,2.10
2019-05-29T02:48:44.157Z,2.50
2019-05-29T02:53:40.277Z,2.07
2019-05-29T02:58:36.192Z,2.10
2019-05-29T03:03:38.954Z,3.00
2019-05-29T03:08:40.316Z,2.10
2019-05-29T03:13:36.542Z,2.60
2019-05-29T03:18:34.740Z,2.67
2019-05-29T03:23:31.087Z,2.37
2019-05-29T03:28:29.809Z,1.90
2019-05-29T03:33:30.492Z,2.63
2019-05-29T03:38:26.082Z,2.60
2019-05-29T03:43:22.693Z,3.00
2019-05-29T03:48:18.646Z,2.50
2019-05-29T03:53:14.566Z,2.30
2019-05-29T03:58:10.500Z,2.93
2019-05-29T04:03:06.529Z,2.60
2019-05-29T04:08:03.853Z,3.03
2019-05-29T04:13:00.536Z,3.10
2019-05-29T04:17:57.700Z,2.80
2019-05-29T04:22:54.782Z,2.97
2019-05-29T04:27:50.748Z,3.63
2019-05-29T04:32:46.704Z,3.10
2019-05-29T04:37:42.623Z,3.27
2019-05-29T04:42:40.112Z,3.27
2019-05-29T04:47:37.341Z,2.97
2019-05-29T04:52:34.242Z,3.83
2019-05-29T04:57:31.347Z,3.80
2019-05-29T05:02:27.285Z,4.23
2019-05-29T05:07:23.205Z,3.90
2019-05-29T05:12:19.245Z,4.43
2019-05-29T05:17:25.846Z,4.97
2019-05-29T05:22:12.989Z,3.97
2019-05-29T05:27:08.988Z,3.97
2019-05-29T05:32:04.917Z,4.77
2019-05-29T05:37:00.823Z,5.00
2019-05-29T05:41:56.849Z,4.10
2019-05-29T05:46:52.775Z,4.90
2019-05-29T05:51:49.533Z,3.90
2019-05-29T05:56:45.466Z,3.90
2019-05-29T06:01:42.111Z,3.90
2019-05-29T06:06:38.196Z,3.87
2019-05-29T06:11:34.259Z,4.07
2019-05-29T06:16:30.200Z,3.80
2019-05-29T06:21:26.256Z,3.00
2019-05-29T06:26:24.751Z,1.97
2019-05-29T06:31:20.821Z,2.67
2019-05-29T06:36:16.745Z,1.93
2019-05-29T06:41:12.664Z,2.00
2019-05-29T06:46:08.591Z,2.10
2019-05-29T06:51:04.645Z,1.40
2019-05-29T06:56:02.121Z,1.40
2019-05-29T07:00:58.631Z,1.30
2019-05-29T07:05:54.668Z,1.27
2019-05-29T07:10:50.601Z,1.37
2019-05-29T07:15:47.573Z,1.30
2019-05-29T07:20:44.796Z,1.60
2019-05-29T07:25:40.998Z,1.37
2019-05-29T07:30:37.381Z,1.13
2019-05-29T07:35:33.462Z,0.97
2019-05-29T07:40:29.387Z,1.27
2019-05-29T07:45:25.407Z,0.90
2019-05-29T07:50:21.346Z,0.60
2019-05-29T07:55:17.406Z,1.30
2019-05-29T08:00:13.598Z,0.80
2019-05-29T08:05:11.119Z,0.80
2019-05-29T08:10:07.558Z,0.90
2019-05-29T08:15:04.602Z,0.80
2019-05-29T08:20:06.814Z,1.23
2019-05-29T08:24:58.454Z,1.23
2019-05-29T08:29:54.387Z,1.10
2019-05-29T08:34:51.221Z,1.00
2019-05-29T08:39:49.462Z,0.97
2019-05-29T08:44:45.569Z,0.90
2019-05-29T08:49:42.204Z,1.00
2019-05-29T08:54:38.955Z,0.90
2019-05-29T08:59:35.412Z,1.10
2019-05-29T09:04:36.947Z,0.70
2019-05-29T09:09:33.438Z,0.90
2019-05-29T09:14:29.355Z,0.80
2019-05-29T09:19:25.281Z,0.73
2019-05-29T09:24:23.058Z,0.70
2019-05-29T09:29:23.789Z,0.60
2019-05-29T09:34:22.745Z,0.90
2019-05-29T09:39:20.937Z,0.70
2019-05-29T09:44:31.218Z,0.70
2019-05-29T09:49:15.817Z,0.80
2019-05-29T09:54:12.805Z,0.80
2019-05-29T09:59:08.791Z,0.83
2019-05-29T10:04:06.170Z,0.67
2019-05-29T10:09:08.581Z,0.77
2019-05-29T10:14:05.092Z,0.70
2019-05-29T10:19:01.616Z,0.70
2019-05-29T10:23:59.568Z,1.40
2019-05-29T10:29:07.332Z,0.87
2019-05-29T10:33:53.606Z,0.77
2019-05-29T10:38:52.683Z,0.53
2019-05-29T10:43:49.159Z,0.80
2019-05-29T10:48:48.699Z,0.60
2019-05-29T10:53:44.274Z,0.60
2019-05-29T10:58:51.626Z,0.50
2019-05-29T11:03:38.169Z,0.50
2019-05-29T11:08:48.025Z,0.67
2019-05-29T11:13:44.222Z,0.53
2019-05-29T11:18:40.154Z,0.80
2019-05-29T11:23:36.089Z,0.70
2019-05-29T11:28:32.020Z,0.90
2019-05-29T11:33:29.212Z,0.60
2019-05-29T11:38:26.716Z,0.90
2019-05-29T11:43:22.942Z,1.00
2019-05-29T11:48:18.895Z,0.70
2019-05-29T11:53:14.944Z,0.70
2019-05-29T11:58:10.985Z,0.60
2019-05-29T12:03:07.018Z,0.90
2019-05-29T12:08:03.157Z,0.70
2019-05-29T12:12:59.649Z,0.70
2019-05-29T12:18:08.213Z,0.60
2019-05-29T12:23:12.818Z,0.50
2019-05-29T12:27:52.622Z,0.90
2019-05-29T12:32:48.744Z,0.63
2019-05-29T12:37:44.673Z,1.00
2019-05-29T12:42:44.774Z,0.87
2019-05-29T12:47:38.564Z,1.07
2019-05-29T12:52:36.200Z,0.90
2019-05-29T12:57:32.230Z,0.60
2019-05-29T13:02:28.162Z,0.87
2019-05-29T13:07:24.093Z,0.70
2019-05-29T13:12:20.023Z,0.73
2019-05-29T13:17:17.535Z,1.20
2019-05-29T13:22:14.162Z,0.60
2019-05-29T13:27:10.085Z,0.90
2019-05-29T13:32:07.565Z,0.77
2019-05-29T13:37:07.477Z,0.60
2019-05-29T13:42:07.328Z,0.90
2019-05-29T13:46:59.852Z,1.07
2019-05-29T13:51:57.052Z,1.20
2019-05-29T13:56:53.442Z,0.97
2019-05-29T14:01:49.501Z,1.10
2019-05-29T14:06:45.432Z,1.17
2019-05-29T14:11:41.367Z,1.27
2019-05-29T14:16:40.007Z,1.13
2019-05-29T14:21:36.740Z,0.83
2019-05-29T14:26:33.474Z,0.80
2019-05-29T14:31:30.643Z,1.47
2019-05-29T14:36:27.430Z,1.23
2019-05-29T14:41:23.628Z,1.20
2019-05-29T14:46:19.515Z,1.20
2019-05-29T14:51:15.438Z,0.90
2019-05-29T14:56:11.365Z,0.93
2019-05-29T15:01:07.301Z,1.37
2019-05-29T15:06:06.148Z,1.20
2019-05-29T15:11:05.680Z,1.83
2019-05-29T15:16:09.015Z,1.43
2019-05-29T15:21:05.216Z,1.57
2019-05-29T15:26:01.141Z,1.00
2019-05-29T15:30:57.097Z,1.37
2019-05-29T15:35:53.162Z,1.13
2019-05-29T15:40:50.199Z,1.80
2019-05-29T15:45:46.228Z,1.40
2019-05-29T15:50:42.175Z,1.17
2019-05-29T15:55:38.103Z,1.47
2019-05-29T16:00:34.028Z,1.17
2019-05-29T16:05:30.001Z,1.00
2019-05-29T16:10:25.947Z,1.10
2019-05-29T16:15:21.877Z,1.10
2019-05-29T16:20:22.705Z,0.90
2019-05-29T16:25:19.247Z,0.83
2019-05-29T16:30:17.787Z,0.50
2019-05-29T16:35:15.122Z,1.23
2019-05-29T16:40:14.122Z,0.80
2019-05-29T16:45:12.058Z,0.83
2019-05-29T16:50:08.770Z,0.80
2019-05-29T16:55:07.569Z,0.70
2019-05-29T17:00:09.438Z,1.67
2019-05-29T17:05:06.289Z,0.87
2019-05-29T17:10:10.725Z,0.80
2019-05-29T17:15:09.087Z,0.80
2019-05-29T17:20:07.285Z,0.60
2019-05-29T17:25:07.437Z,0.80
2019-05-29T17:30:05.467Z,0.60
2019-05-29T17:35:02.491Z,0.60
2019-05-29T17:39:58.424Z,0.50
2019-05-29T17:44:54.345Z,0.87
2019-05-29T17:49:50.275Z,0.80
2019-05-29T17:54:46.397Z,0.70
2019-05-29T17:59:43.058Z,0.50
2019-05-29T18:04:39.204Z,0.70
2019-05-29T18:09:37.270Z,0.70
2019-05-29T18:14:41.499Z,0.50
2019-05-29T18:19:38.673Z,0.40
2019-05-29T18:24:34.701Z,0.60
2019-05-29T18:29:31.621Z,0.60
2019-05-29T18:34:29.799Z,0.40
2019-05-29T18:39:26.472Z,0.50
2019-05-29T18:44:22.828Z,0.60
2019-05-29T18:49:20.281Z,0.60
2019-05-29T18:54:16.430Z,0.60
2019-05-29T18:59:12.360Z,0.70
2019-05-29T19:04:08.284Z,0.70
2019-05-29T19:09:09.267Z,1.57
2019-05-29T19:14:05.395Z,1.00
2019-05-29T19:19:01.323Z,0.70
2019-05-29T19:23:57.261Z,1.00
2019-05-29T19:28:53.194Z,0.80
2019-05-29T19:33:49.125Z,1.00
2019-05-29T19:38:47.519Z,1.00
2019-05-29T19:43:43.447Z,1.10
2019-05-29T19:48:39.785Z,1.23
2019-05-29T19:53:35.830Z,1.57
2019-05-29T19:58:31.914Z,1.40
2019-05-29T20:03:28.345Z,2.00
2019-05-29T20:08:27.054Z,1.37
2019-05-29T20:13:23.253Z,1.40
2019-05-29T20:18:19.181Z,1.37
2019-05-29T20:23:15.109Z,1.40
2019-05-29T20:28:11.442Z,1.60
2019-05-29T20:33:07.670Z,1.30
2019-05-29T20:38:06.502Z,1.10
2019-05-29T20:43:01.547Z,1.30
2019-05-29T20:47:57.581Z,1.60
2019-05-29T20:52:53.542Z,1.47
2019-05-29T20:57:49.502Z,1.20
2019-05-29T21:02:45.426Z,1.20
2019-05-29T21:07:41.383Z,1.03
2019-05-29T21:12:37.584Z,1.07
2019-05-29T21:17:35.756Z,1.53
2019-05-29T21:22:32.182Z,1.43
2019-05-29T21:27:28.109Z,1.30
2019-05-29T21:32:24.028Z,0.90
2019-05-29T21:37:19.958Z,1.80
2019-05-29T21:42:15.897Z,1.10
2019-05-29T21:47:11.835Z,1.57
2019-05-29T21:52:11.974Z,1.13
2019-05-29T21:57:09.764Z,1.00
2019-05-29T22:02:06.185Z,1.50
2019-05-29T22:07:02.293Z,1.10
2019-05-29T22:11:58.583Z,1.20
2019-05-29T22:16:55.012Z,1.20
2019-05-29T22:21:51.138Z,1.30
2019-05-29T22:26:47.062Z,1.17
2019-05-29T22:31:42.989Z,1.30
2019-05-29T22:36:38.917Z,1.10
2019-05-29T22:41:34.891Z,1.13
2019-05-29T22:46:30.818Z,1.20
2019-05-29T22:51:26.843Z,1.40
2019-05-29T22:56:22.763Z,1.23
2019-05-29T23:01:18.847Z,1.70
2019-05-29T23:06:14.781Z,1.87
2019-05-29T23:11:10.710Z,1.17
2019-05-29T23:16:06.743Z,1.00
2019-05-29T23:21:02.780Z,0.90
2019-05-29T23:25:58.699Z,1.37
2019-05-29T23:30:54.749Z,1.20
2019-05-29T23:35:50.703Z,1.63
2019-05-29T23:40:46.635Z,1.40
2019-05-29T23:45:42.564Z,1.33
2019-05-29T23:50:38.504Z,2.00
2019-05-29T23:55:34.426Z,1.50
